地図

経路データ

SID SEASON NUMBER BASIN SUBBASIN NAME ISO_TIME NATURE LAT LON WMO_WIND WMO_PRES WMO_AGENCY TRACK_TYPE DIST2LAND LANDFALL IFLAG USA_AGENCY USA_ATCF_ID USA_LAT USA_LON USA_RECORD USA_STATUS USA_WIND USA_PRES USA_SSHS USA_R34_NE USA_R34_SE USA_R34_SW USA_R34_NW USA_R50_NE USA_R50_SE USA_R50_SW USA_R50_NW USA_R64_NE USA_R64_SE USA_R64_SW USA_R64_NW USA_POCI USA_ROCI USA_RMW USA_EYE TOKYO_LAT TOKYO_LON TOKYO_GRADE TOKYO_WIND TOKYO_PRES TOKYO_R50_DIR TOKYO_R50_LONG TOKYO_R50_SHORT TOKYO_R30_DIR TOKYO_R30_LONG TOKYO_R30_SHORT TOKYO_LAND CMA_LAT CMA_LON CMA_CAT CMA_WIND CMA_PRES HKO_LAT HKO_LON HKO_CAT HKO_WIND HKO_PRES NEWDELHI_LAT NEWDELHI_LON NEWDELHI_GRADE NEWDELHI_WIND NEWDELHI_PRES NEWDELHI_CI NEWDELHI_DP NEWDELHI_POCI REUNION_LAT REUNION_LON REUNION_TYPE REUNION_WIND REUNION_PRES REUNION_TNUM REUNION_CI REUNION_RMW REUNION_R34_NE REUNION_R34_SE REUNION_R34_SW REUNION_R34_NW REUNION_R50_NE REUNION_R50_SE REUNION_R50_SW REUNION_R50_NW REUNION_R64_NE REUNION_R64_SE REUNION_R64_SW REUNION_R64_NW BOM_LAT BOM_LON BOM_TYPE BOM_WIND BOM_PRES BOM_TNUM BOM_CI BOM_RMW BOM_R34_NE BOM_R34_SE BOM_R34_SW BOM_R34_NW BOM_R50_NE BOM_R50_SE BOM_R50_SW BOM_R50_NW BOM_R64_NE BOM_R64_SE BOM_R64_SW BOM_R64_NW BOM_ROCI BOM_POCI BOM_EYE BOM_POS_METHOD BOM_PRES_METHOD NADI_LAT NADI_LON NADI_CAT NADI_WIND NADI_PRES WELLINGTON_LAT WELLINGTON_LON WELLINGTON_WIND WELLINGTON_PRES DS824_LAT DS824_LON DS824_STAGE DS824_WIND DS824_PRES TD9636_LAT TD9636_LON TD9636_STAGE TD9636_WIND TD9636_PRES TD9635_LAT TD9635_LON TD9635_WIND TD9635_PRES TD9635_ROCI NEUMANN_LAT NEUMANN_LON NEUMANN_CLASS NEUMANN_WIND NEUMANN_PRES MLC_LAT MLC_LON MLC_CLASS MLC_WIND MLC_PRES USA_GUST BOM_GUST BOM_GUST_PER REUNION_GUST REUNION_GUST_PER USA_SEAHGT USA_SEARAD_NE USA_SEARAD_SE USA_SEARAD_SW USA_SEARAD_NW STORM_SPEED STORM_DIR
1861202N37285 1861 17 NA NA NOT_NAMED 1861-07-20 12:00:00 ET 36.5000 -75.0000 main 70 63 _____________O -1 36.5000 -75.0000 EX 35 2 241
1861202N37285 1861 17 NA NA NOT_NAMED 1861-07-20 15:00:00 ET 36.4500 -75.1100 main 63 49 _____________P -1 36.4500 -75.1100 EX 35 2 238
1861202N37285 1861 17 NA NA NOT_NAMED 1861-07-20 18:00:00 ET 36.4000 -75.2000 main 49 42 _____________O -1 36.4000 -75.2000 EX 35 2 229
1861202N37285 1861 17 NA NA NOT_NAMED 1861-07-20 21:00:00 ET 36.3500 -75.2575 main 37 37 _____________P -1 36.3500 -75.2575 EX 35 1 217
1861202N37285 1861 17 NA NA NOT_NAMED 1861-07-21 00:00:00 ET 36.3000 -75.3000 main 37 34 _____________O -1 36.3000 -75.3000 EX 35 1 215
1861202N37285 1861 17 NA NA NOT_NAMED 1861-07-21 03:00:00 ET 36.2425 -75.3500 main 26 26 _____________P -1 36.2425 -75.3500 EX 35 1 217
1861202N37285 1861 17 NA NA NOT_NAMED 1861-07-21 06:00:00 ET 36.2000 -75.4000 main 26 26 _____________O -1 36.2000 -75.4000 EX 35 1 237
1861202N37285 1861 17 NA NA NOT_NAMED 1861-07-21 09:00:00 ET 36.2000 -75.4350 main 26 17 _____________P -1 36.2000 -75.4350 EX 35 1 270
1861202N37285 1861 17 NA NA NOT_NAMED 1861-07-21 12:00:00 ET 36.2000 -75.5000 main 17 8 _____________O -1 36.2000 -75.5000 EX 35 2 254
1861202N37285 1861 17 NA NA NOT_NAMED 1861-07-21 15:00:00 ET 36.1501 -75.6426 main 8 0 _____________P -1 36.1500 -75.6426 EX 35 3 247
1861202N37285 1861 17 NA NA NOT_NAMED 1861-07-21 18:00:00 ET 36.1000 -75.8000 main 0 0 _____________O -1 36.1000 -75.8000 EX 35 2 257
1861202N37285 1861 17 NA NA NOT_NAMED 1861-07-21 21:00:00 ET 36.0999 -75.8999 main 8 8 _____________P -1 36.0999 -75.8999 EX 35 2 270
1861202N37285 1861 17 NA NA NOT_NAMED 1861-07-22 00:00:00 ET 36.1000 -76.0000 main 8 0 _____________O -1 36.1000 -76.0000 EX 35 2 256
1861202N37285 1861 17 NA NA NOT_NAMED 1861-07-22 03:00:00 ET 36.0500 -76.1501 main 0 0 _____________P -1 36.0500 -76.1501 EX 35 3 248
1861202N37285 1861 17 NA NA NOT_NAMED 1861-07-22 06:00:00 ET 36.0000 -76.3000 main 11 0 _____________O -1 36.0000 -76.3000 EX 35 3 254
1861202N37285 1861 17 NA NA NOT_NAMED 1861-07-22 09:00:00 ET 35.9774 -76.4599 main 0 0 _____________P -1 35.9774 -76.4599 EX 35 2 270
1861202N37285 1861 17 NA NA NOT_NAMED 1861-07-22 12:00:00 ET 36.0000 -76.5000 main 0 0 _____________O -1 36.0000 -76.5000 EX 35 2 47
1861202N37285 1861 17 NA NA NOT_NAMED 1861-07-22 15:00:00 ET 36.0926 -76.3027 main 0 0 _____________P -1 36.0926 -76.3027 EX 35 5 64
1861202N37285 1861 17 NA NA NOT_NAMED 1861-07-22 18:00:00 ET 36.2000 -76.0000 main 8 0 _____________O -1 36.2000 -76.0000 EX 35 5 70
1861202N37285 1861 17 NA NA NOT_NAMED 1861-07-22 21:00:00 ET 36.2574 -75.7499 main 8 8 _____________P -1 36.2574 -75.7499 EX 35 4 76
1861202N37285 1861 17 NA NA NOT_NAMED 1861-07-23 00:00:00 SS 36.3000 -75.5000 main 21 21 _____________O -1 36.3000 -75.5000 SS 35 4 77
1861202N37285 1861 17 NA NA NOT_NAMED 1861-07-23 03:00:00 SS 36.3499 -75.2500 main 46 46 _____________P -1 36.3499 -75.2500 SS 37 4 76
1861202N37285 1861 17 NA NA NOT_NAMED 1861-07-23 06:00:00 SS 36.4000 -75.0000 main 66 66 _____________O -1 36.4000 -75.0000 SS 40 4 76
1861202N37285 1861 17 NA NA NOT_NAMED 1861-07-23 09:00:00 SS 36.4421 -74.7873 main 83 83 _____________P -1 36.4421 -74.7873 SS 42 4 76
1861202N37285 1861 17 NA NA NOT_NAMED 1861-07-23 12:00:00 SS 36.5000 -74.5000 main 112 112 _____________O -1 36.5000 -74.5000 SS 45 6 75
1861202N37285 1861 17 NA NA NOT_NAMED 1861-07-23 15:00:00 SS 36.6002 -74.0378 main 157 157 _____________P -1 36.6002 -74.0378 SS 45 8 76
1861202N37285 1861 17 NA NA NOT_NAMED 1861-07-23 18:00:00 SS 36.7000 -73.5000 main 203 203 _____________O -1 36.7000 -73.5000 SS 45 8 79
1861202N37285 1861 17 NA NA NOT_NAMED 1861-07-23 21:00:00 SS 36.7573 -72.9998 main 247 247 _____________P -1 36.7573 -72.9998 SS 47 8 83
1861202N37285 1861 17 NA NA NOT_NAMED 1861-07-24 00:00:00 SS 36.8000 -72.5000 main 283 283 _____________O -1 36.8000 -72.5000 SS 50 8 83
1861202N37285 1861 17 NA NA NOT_NAMED 1861-07-24 03:00:00 SS 36.8498 -71.9999 main 319 313 _____________P -1 36.8498 -71.9999 SS 50 8 83
1861202N37285 1861 17 NA NA NOT_NAMED 1861-07-24 06:00:00 SS 36.9000 -71.5000 main 352 352 _____________O -1 36.9000 -71.5000 SS 50 8 84
1861202N37285 1861 17 NA NA NOT_NAMED 1861-07-24 09:00:00 SS 36.9344 -71.0295 main 392 392 _____________P -1 36.9344 -71.0295 SS 50 8 83
1861202N37285 1861 17 NA NA NOT_NAMED 1861-07-24 12:00:00 SS 37.0000 -70.5000 main 429 429 _____________O -1 37.0000 -70.5000 SS 50 10 78
1861202N37285 1861 17 NA NA NOT_NAMED 1861-07-24 15:00:00 SS 37.1427 -69.8230 main 473 467 _____________P -1 37.1427 -69.8230 SS 47 12 75
1861202N37285 1861 17 NA NA NOT_NAMED 1861-07-24 18:00:00 SS 37.3000 -69.1000 main 487 484 _____________O -1 37.3000 -69.1000 SS 45 11 77
1861202N37285 1861 17 NA NA NOT_NAMED 1861-07-24 21:00:00 SS 37.3994 -68.4494 main 496 494 _____________P -1 37.3994 -68.4494 SS 45 11 79
1861202N37285 1861 17 NA NA NOT_NAMED 1861-07-25 00:00:00 SS 37.5000 -67.8000 main 503 503 _____________O -1 37.5000 -67.8000 SS 45 11 77
1861202N37285 1861 17 NA NA NOT_NAMED 1861-07-25 03:00:00 SS 37.6497 -67.1077 main 519 509 _____________P -1 37.6497 -67.1077 SS 42 11 75
1861202N37285 1861 17 NA NA NOT_NAMED 1861-07-25 06:00:00 SS 37.8000 -66.4000 main 531 531 _____________O -1 37.8000 -66.4000 SS 40 11 77
1861202N37285 1861 17 NA NA NOT_NAMED 1861-07-25 09:00:00 SS 37.9133 -65.6976 main 559 559 _____________P -1 37.9133 -65.6976 SS 40 11 80
1861202N37285 1861 17 NA NA NOT_NAMED 1861-07-25 12:00:00 SS 38.0000 -65.0000 main 591 _____________O -1 38.0000 -65.0000 SS 40 11 81

IBTrACS Databaseについて

本データベースは、米国NOAAが公開する1842年以降の世界の熱帯低気圧のベストトラックデータアーカイブInternational Best Track Archive for Climate Stewardship (IBTrACS)を、ウェブで閲覧しやすい形式に変換したものです。

最終更新日:2021-10-21